createdAt,value
2018-09-21T00:00:39.202Z,21.38
2018-09-21T00:03:08.481Z,21.39
2018-09-21T00:05:36.865Z,21.43
2018-09-21T00:08:05.384Z,21.46
2018-09-21T00:10:34.125Z,21.49
2018-09-21T00:13:02.869Z,21.54
2018-09-21T00:15:31.488Z,21.57
2018-09-21T00:17:59.705Z,21.58
2018-09-21T00:20:28.000Z,21.62
2018-09-21T00:22:56.725Z,21.61
2018-09-21T00:25:24.918Z,21.63
2018-09-21T00:27:53.461Z,21.67
2018-09-21T00:30:21.785Z,21.70
2018-09-21T00:32:50.265Z,21.68
2018-09-21T00:35:19.021Z,21.68
2018-09-21T00:37:47.869Z,21.65
2018-09-21T00:40:16.374Z,21.64
2018-09-21T00:42:44.869Z,21.60
2018-09-21T00:45:13.029Z,21.56
2018-09-21T00:47:41.888Z,21.53
2018-09-21T00:50:10.809Z,21.49
2018-09-21T00:52:39.000Z,21.43
2018-09-21T00:55:07.496Z,21.38
2018-09-21T00:57:35.892Z,21.35
2018-09-21T01:00:04.365Z,21.33
2018-09-21T01:02:33.140Z,21.33
2018-09-21T01:05:01.485Z,21.30
2018-09-21T01:07:29.756Z,21.26
2018-09-21T01:09:58.249Z,21.21
2018-09-21T01:12:26.802Z,21.18
2018-09-21T01:14:55.157Z,21.14
2018-09-21T01:17:23.883Z,21.13
2018-09-21T01:19:52.054Z,21.14
2018-09-21T01:22:21.577Z,21.16
2018-09-21T01:24:49.810Z,21.18
2018-09-21T01:27:19.329Z,21.22
2018-09-21T01:29:47.668Z,21.24
2018-09-21T01:32:15.898Z,21.28
2018-09-21T01:34:44.881Z,21.34
2018-09-21T01:37:13.053Z,21.41
2018-09-21T01:39:41.223Z,21.46
2018-09-21T01:42:10.012Z,21.46
2018-09-21T01:44:38.544Z,21.48
2018-09-21T01:47:07.519Z,21.51
2018-09-21T01:49:35.944Z,21.50
2018-09-21T01:52:04.109Z,21.46
2018-09-21T01:54:32.245Z,21.40
2018-09-21T01:57:00.728Z,21.32
2018-09-21T01:59:28.894Z,21.27
2018-09-21T02:01:57.023Z,21.21
2018-09-21T02:04:31.041Z,21.18
2018-09-21T02:06:59.219Z,21.17
2018-09-21T02:09:28.065Z,21.17
2018-09-21T02:11:56.712Z,21.16
2018-09-21T02:14:24.949Z,21.14
2018-09-21T02:16:53.307Z,21.12
2018-09-21T02:19:22.194Z,21.09
2018-09-21T02:21:50.967Z,21.06
2018-09-21T02:24:19.864Z,21.02
2018-09-21T02:26:48.416Z,21.03
2018-09-21T02:29:17.020Z,21.05
2018-09-21T02:31:45.413Z,21.07
2018-09-21T02:34:13.880Z,21.06
2018-09-21T02:36:42.609Z,21.06
2018-09-21T02:39:11.163Z,21.03
2018-09-21T02:41:40.459Z,21.01
2018-09-21T02:44:09.179Z,21.04
2018-09-21T02:46:37.665Z,21.06
2018-09-21T02:49:06.560Z,21.11
2018-09-21T02:51:35.017Z,21.13
2018-09-21T02:54:03.733Z,21.15
2018-09-21T02:56:32.040Z,21.16
2018-09-21T02:59:00.549Z,21.16
2018-09-21T03:01:29.041Z,21.20
2018-09-21T03:03:57.450Z,21.24
2018-09-21T03:06:25.860Z,21.25
2018-09-21T03:08:54.029Z,21.29
2018-09-21T03:11:22.620Z,21.34
2018-09-21T03:13:50.962Z,21.38
2018-09-21T03:16:19.534Z,21.40
2018-09-21T03:18:48.646Z,21.49
2018-09-21T03:21:17.001Z,21.57
2018-09-21T03:23:45.494Z,21.63
2018-09-21T03:26:13.907Z,21.64
2018-09-21T03:28:42.042Z,21.69
2018-09-21T03:31:10.371Z,21.69
2018-09-21T03:33:38.869Z,21.76
2018-09-21T03:36:07.021Z,21.82
2018-09-21T03:38:35.173Z,21.84
2018-09-21T03:41:04.129Z,21.91
2018-09-21T03:43:32.885Z,21.95
2018-09-21T03:46:01.396Z,21.97
2018-09-21T03:48:29.585Z,22.02
2018-09-21T03:50:58.238Z,22.07
2018-09-21T03:53:26.693Z,22.11
2018-09-21T03:55:55.261Z,22.15
2018-09-21T03:58:23.856Z,22.18
2018-09-21T04:00:52.094Z,22.21
2018-09-21T04:03:20.358Z,22.25
2018-09-21T04:05:48.584Z,22.29
2018-09-21T04:08:16.980Z,22.27
2018-09-21T04:10:45.186Z,22.34
2018-09-21T04:13:13.313Z,22.39
2018-09-21T04:15:41.788Z,22.41
2018-09-21T04:18:10.066Z,22.42
2018-09-21T04:20:38.805Z,22.41
2018-09-21T04:23:07.452Z,22.47
2018-09-21T04:25:36.634Z,22.49
2018-09-21T04:28:05.405Z,22.49
2018-09-21T04:30:34.107Z,22.46
2018-09-21T04:33:02.612Z,22.46
2018-09-21T04:35:31.289Z,22.45
2018-09-21T04:37:59.904Z,22.45
2018-09-21T04:40:28.352Z,22.45
2018-09-21T04:42:56.496Z,22.42
2018-09-21T04:45:25.165Z,22.45
2018-09-21T04:47:53.289Z,22.47
2018-09-21T04:50:21.766Z,22.46
2018-09-21T04:52:50.125Z,22.45
2018-09-21T04:55:19.714Z,22.45
2018-09-21T04:57:48.143Z,22.47
2018-09-21T05:00:16.609Z,22.48
2018-09-21T05:02:45.081Z,22.49
2018-09-21T05:05:13.348Z,22.49
2018-09-21T05:07:41.472Z,22.46
2018-09-21T05:10:09.864Z,22.44
2018-09-21T05:12:38.474Z,22.44
2018-09-21T05:15:06.985Z,22.45
2018-09-21T05:17:35.170Z,22.45
2018-09-21T05:20:03.530Z,22.46
2018-09-21T05:22:31.679Z,22.48
2018-09-21T05:25:00.604Z,22.47
2018-09-21T05:27:28.843Z,22.49
2018-09-21T05:29:57.113Z,22.53
2018-09-21T05:32:25.469Z,22.55
2018-09-21T05:34:53.668Z,22.62
2018-09-21T05:37:22.593Z,22.68
2018-09-21T05:39:50.732Z,22.73
2018-09-21T05:42:19.881Z,22.76
2018-09-21T05:44:48.265Z,22.82
2018-09-21T05:47:16.402Z,22.85
2018-09-21T05:49:44.721Z,22.95
2018-09-21T05:52:13.309Z,23.06
2018-09-21T05:54:41.841Z,23.13
2018-09-21T05:57:10.569Z,23.21
2018-09-21T05:59:38.765Z,23.27
2018-09-21T06:02:07.558Z,23.30
2018-09-21T06:04:35.990Z,23.35
2018-09-21T06:07:04.381Z,23.42
2018-09-21T06:09:33.061Z,23.50
2018-09-21T06:12:05.917Z,23.53
2018-09-21T06:14:34.376Z,23.60
2018-09-21T06:17:02.916Z,23.64
2018-09-21T06:19:31.905Z,23.67
2018-09-21T06:22:00.313Z,23.71
2018-09-21T06:24:29.098Z,23.74
2018-09-21T06:26:57.655Z,23.77
2018-09-21T06:29:25.808Z,23.84
2018-09-21T06:31:53.991Z,23.89
2018-09-21T06:34:23.044Z,23.93
2018-09-21T06:36:51.792Z,23.96
2018-09-21T06:39:20.232Z,24.01
2018-09-21T06:41:48.904Z,24.03
2018-09-21T06:44:17.837Z,24.05
2018-09-21T06:46:46.468Z,24.07
2018-09-21T06:49:14.597Z,24.09
2018-09-21T06:51:43.337Z,24.11
2018-09-21T06:54:11.477Z,24.12
2018-09-21T06:56:39.648Z,24.15
2018-09-21T06:59:13.960Z,24.16
2018-09-21T07:01:42.676Z,24.16
2018-09-21T07:04:11.607Z,24.18
2018-09-21T07:06:39.820Z,24.17
2018-09-21T07:09:10.877Z,24.22
2018-09-21T07:11:39.524Z,24.30
2018-09-21T07:14:07.998Z,24.39
2018-09-21T07:16:36.649Z,24.48
2018-09-21T07:19:05.341Z,24.56
2018-09-21T07:21:33.673Z,24.59
2018-09-21T07:24:02.085Z,24.64
2018-09-21T07:26:30.928Z,24.67
2018-09-21T07:28:59.072Z,24.65
2018-09-21T07:31:27.738Z,24.63
2018-09-21T07:33:56.413Z,24.63
2018-09-21T07:36:25.664Z,24.62
2018-09-21T07:38:53.859Z,24.65
2018-09-21T07:41:22.385Z,24.70
2018-09-21T07:43:50.604Z,24.72
2018-09-21T07:46:20.260Z,24.73
2018-09-21T07:48:48.844Z,24.74
2018-09-21T07:51:18.052Z,24.84
2018-09-21T07:53:46.541Z,24.96
2018-09-21T07:56:14.719Z,25.05
2018-09-21T07:58:42.838Z,25.02
2018-09-21T08:01:11.401Z,24.94
2018-09-21T08:03:39.981Z,24.88
2018-09-21T08:06:08.464Z,24.84
2018-09-21T08:08:37.401Z,24.80
2018-09-21T08:11:05.921Z,24.77
2018-09-21T08:13:34.601Z,24.75
2018-09-21T08:16:05.515Z,24.75
2018-09-21T08:18:34.288Z,24.76
2018-09-21T08:21:02.589Z,24.68
2018-09-21T08:23:31.936Z,24.66
2018-09-21T08:26:00.081Z,24.63
2018-09-21T08:28:28.261Z,24.62
2018-09-21T08:30:57.004Z,24.64
2018-09-21T08:33:25.596Z,24.64
2018-09-21T08:35:53.900Z,24.63
2018-09-21T08:38:22.381Z,24.64
2018-09-21T08:40:50.781Z,24.55
2018-09-21T08:43:20.462Z,24.48
2018-09-21T08:45:48.762Z,24.42
2018-09-21T08:48:17.480Z,24.39
2018-09-21T08:50:45.968Z,24.34
2018-09-21T08:53:14.457Z,24.29
2018-09-21T08:55:43.089Z,24.27
2018-09-21T08:58:11.570Z,24.25
2018-09-21T09:00:40.119Z,24.26
2018-09-21T09:03:08.405Z,24.35
2018-09-21T09:05:37.289Z,24.33
2018-09-21T09:08:07.391Z,24.32
2018-09-21T09:10:36.363Z,24.26
2018-09-21T09:13:04.848Z,24.29
2018-09-21T09:15:35.125Z,24.23
2018-09-21T09:18:03.758Z,24.18
2018-09-21T09:20:32.461Z,24.09
2018-09-21T09:23:00.595Z,24.06
2018-09-21T09:25:29.551Z,24.02
2018-09-21T09:28:00.804Z,24.03
2018-09-21T09:30:29.570Z,24.04
2018-09-21T09:32:58.278Z,24.08
2018-09-21T09:35:27.045Z,24.12
2018-09-21T09:37:58.906Z,24.12
2018-09-21T09:40:32.814Z,24.05
2018-09-21T09:43:04.526Z,23.96
2018-09-21T09:45:33.324Z,23.86
2018-09-21T09:48:02.142Z,23.74
2018-09-21T09:50:31.372Z,23.70
2018-09-21T09:52:59.522Z,23.61
2018-09-21T09:55:28.269Z,23.26
2018-09-21T09:57:56.433Z,22.67
2018-09-21T10:00:31.816Z,22.07
2018-09-21T10:02:59.973Z,21.31
2018-09-21T10:05:34.624Z,20.18
2018-09-21T10:08:07.040Z,18.86
2018-09-21T10:10:35.645Z,17.94
2018-09-21T10:13:04.349Z,17.30
2018-09-21T10:15:32.817Z,16.89
2018-09-21T10:18:01.513Z,16.75
2018-09-21T10:20:30.201Z,16.77
2018-09-21T10:22:58.521Z,16.75
2018-09-21T10:25:27.029Z,16.75
2018-09-21T10:27:55.404Z,16.78
2018-09-21T10:30:24.349Z,16.74
2018-09-21T10:32:53.213Z,16.68
2018-09-21T10:35:21.887Z,16.61
2018-09-21T10:37:50.145Z,16.59
2018-09-21T10:40:18.738Z,16.62
2018-09-21T10:42:47.777Z,16.62
2018-09-21T10:45:16.577Z,16.59
2018-09-21T10:47:45.125Z,16.61
2018-09-21T10:50:13.711Z,16.60
2018-09-21T10:52:42.561Z,16.64
2018-09-21T10:55:11.093Z,16.72
2018-09-21T10:57:39.270Z,16.76
2018-09-21T11:00:08.681Z,16.80
2018-09-21T11:02:37.676Z,16.80
2018-09-21T11:05:06.249Z,16.80
2018-09-21T11:07:35.352Z,16.78
2018-09-21T11:10:03.816Z,16.75
2018-09-21T11:12:33.340Z,16.80
2018-09-21T11:15:02.082Z,16.79
2018-09-21T11:17:30.540Z,16.76
2018-09-21T11:19:59.022Z,16.77
2018-09-21T11:22:27.484Z,16.76
2018-09-21T11:24:55.981Z,16.73
2018-09-21T11:27:24.545Z,16.75
2018-09-21T11:29:53.040Z,16.79
2018-09-21T11:32:22.113Z,16.82
2018-09-21T11:34:50.860Z,16.81
2018-09-21T11:37:19.444Z,16.83
2018-09-21T11:39:49.985Z,16.84
2018-09-21T11:42:18.144Z,16.82
2018-09-21T11:44:46.728Z,16.84
2018-09-21T11:47:14.987Z,16.88
2018-09-21T11:49:43.356Z,16.91
2018-09-21T11:52:12.016Z,16.97
2018-09-21T11:54:40.253Z,16.98
2018-09-21T11:57:08.936Z,16.99
2018-09-21T11:59:37.793Z,17.04
2018-09-21T12:02:06.726Z,17.09
2018-09-21T12:04:35.148Z,17.12
2018-09-21T12:07:03.329Z,17.19
2018-09-21T12:09:32.036Z,17.21
2018-09-21T12:12:00.389Z,17.27
2018-09-21T12:14:28.901Z,17.31
2018-09-21T12:16:57.457Z,17.31
2018-09-21T12:19:26.101Z,17.29
2018-09-21T12:21:54.652Z,17.32
2018-09-21T12:24:23.581Z,17.37
2018-09-21T12:26:52.037Z,17.40
2018-09-21T12:29:21.037Z,17.42
2018-09-21T12:31:50.184Z,17.43
2018-09-21T12:34:18.392Z,17.43
2018-09-21T12:36:47.405Z,17.47
2018-09-21T12:39:15.893Z,17.49
2018-09-21T12:41:44.765Z,17.52
2018-09-21T12:44:14.775Z,17.56
2018-09-21T12:46:43.569Z,17.56
2018-09-21T12:49:11.716Z,17.57
2018-09-21T12:51:40.985Z,17.58
2018-09-21T12:54:09.829Z,17.60
2018-09-21T12:56:38.029Z,17.67
2018-09-21T12:59:12.930Z,17.72
2018-09-21T13:01:41.472Z,17.66
2018-09-21T13:04:10.164Z,17.58
2018-09-21T13:06:38.614Z,17.56
2018-09-21T13:09:07.712Z,17.56
2018-09-21T13:11:36.957Z,17.57
2018-09-21T13:14:05.837Z,17.49
2018-09-21T13:16:34.893Z,17.26
2018-09-21T13:19:03.684Z,17.06
2018-09-21T13:21:32.413Z,16.93
2018-09-21T13:24:00.717Z,16.93
2018-09-21T13:26:28.865Z,16.85
2018-09-21T13:28:57.692Z,16.89
2018-09-21T13:31:26.109Z,17.00
2018-09-21T13:33:54.533Z,17.12
2018-09-21T13:36:25.797Z,17.16
2018-09-21T13:38:54.480Z,17.20
2018-09-21T13:41:23.083Z,17.23
2018-09-21T13:43:52.240Z,17.29
2018-09-21T13:46:21.053Z,17.35
2018-09-21T13:48:49.816Z,17.35
2018-09-21T13:51:18.305Z,17.34
2018-09-21T13:53:46.813Z,17.37
2018-09-21T13:56:14.949Z,17.43
2018-09-21T13:58:43.422Z,17.43
2018-09-21T14:01:11.752Z,17.45
2018-09-21T14:03:40.226Z,17.43
2018-09-21T14:06:08.973Z,17.43
2018-09-21T14:08:37.369Z,17.45
2018-09-21T14:11:05.845Z,17.47
2018-09-21T14:13:34.312Z,17.54
2018-09-21T14:16:03.016Z,17.59
2018-09-21T14:18:31.607Z,17.66
2018-09-21T14:21:00.127Z,17.67
2018-09-21T14:23:28.860Z,17.65
2018-09-21T14:25:57.549Z,17.70
2018-09-21T14:28:26.276Z,17.68
2018-09-21T14:30:55.043Z,17.71
2018-09-21T14:33:23.191Z,17.75
2018-09-21T14:35:52.325Z,17.78
2018-09-21T14:38:21.037Z,17.92
2018-09-21T14:40:49.498Z,18.07
2018-09-21T14:43:17.968Z,18.26
2018-09-21T14:45:46.091Z,18.50
2018-09-21T14:48:14.553Z,18.73
2018-09-21T14:50:43.154Z,18.85
2018-09-21T14:53:12.072Z,19.03
2018-09-21T14:55:40.305Z,19.15
2018-09-21T14:58:09.046Z,19.11
2018-09-21T15:00:38.121Z,19.00
2018-09-21T15:03:06.638Z,18.84
2018-09-21T15:05:35.281Z,18.72
2018-09-21T15:08:03.993Z,18.54
2018-09-21T15:10:32.972Z,18.33
2018-09-21T15:13:02.024Z,18.13
2018-09-21T15:15:30.548Z,17.98
2018-09-21T15:17:59.213Z,17.81
2018-09-21T15:20:27.381Z,17.73
2018-09-21T15:22:56.141Z,17.61
2018-09-21T15:25:24.715Z,17.47
2018-09-21T15:27:53.114Z,17.39
2018-09-21T15:30:21.377Z,17.36
2018-09-21T15:32:49.811Z,17.37
2018-09-21T15:35:18.328Z,17.41
2018-09-21T15:37:46.528Z,17.51
2018-09-21T15:40:15.105Z,17.52
2018-09-21T15:42:43.357Z,17.58
2018-09-21T15:45:11.954Z,17.68
2018-09-21T15:47:40.116Z,17.80
2018-09-21T15:50:08.544Z,17.88
2018-09-21T15:52:37.351Z,17.92
2018-09-21T15:55:06.305Z,17.88
2018-09-21T15:57:34.952Z,17.87
2018-09-21T16:00:03.556Z,17.95
2018-09-21T16:02:32.712Z,17.95
2018-09-21T16:05:01.401Z,17.97
2018-09-21T16:07:30.237Z,17.97
2018-09-21T16:09:59.386Z,17.94
2018-09-21T16:12:29.265Z,17.88
2018-09-21T16:14:57.415Z,17.84
2018-09-21T16:17:26.354Z,17.76
2018-09-21T16:19:54.590Z,17.71
2018-09-21T16:22:23.048Z,17.70
2018-09-21T16:24:52.000Z,17.61
2018-09-21T16:27:21.649Z,17.60
2018-09-21T16:29:50.342Z,17.52
2018-09-21T16:32:18.748Z,17.44
2018-09-21T16:34:47.118Z,17.43
2018-09-21T16:37:15.633Z,17.44
2018-09-21T16:39:44.056Z,17.39
2018-09-21T16:42:12.561Z,17.26
2018-09-21T16:44:45.437Z,17.15
2018-09-21T16:47:13.648Z,17.04
2018-09-21T16:49:42.072Z,16.93
2018-09-21T16:52:10.553Z,16.83
2018-09-21T16:54:39.302Z,16.80
2018-09-21T16:57:08.499Z,16.72
2018-09-21T16:59:37.715Z,16.60
2018-09-21T17:02:06.177Z,16.49
2018-09-21T17:04:34.796Z,16.46
2018-09-21T17:07:03.757Z,16.42
2018-09-21T17:09:32.180Z,16.33
2018-09-21T17:12:03.552Z,16.31
2018-09-21T17:14:34.621Z,16.29
2018-09-21T17:17:02.836Z,16.22
2018-09-21T17:19:31.125Z,16.18
2018-09-21T17:21:59.572Z,16.16
2018-09-21T17:24:28.192Z,16.12
2018-09-21T17:26:57.019Z,16.05
2018-09-21T17:29:25.744Z,15.97
2018-09-21T17:31:54.208Z,15.92
2018-09-21T17:34:22.860Z,15.87
2018-09-21T17:36:51.414Z,15.80
2018-09-21T17:39:19.734Z,15.80
2018-09-21T17:41:48.631Z,15.82
2018-09-21T17:44:17.389Z,15.76
2018-09-21T17:46:45.840Z,15.71
2018-09-21T17:49:14.133Z,15.67
2018-09-21T17:51:42.577Z,15.64
2018-09-21T17:54:10.704Z,15.66
2018-09-21T17:56:39.453Z,15.66
2018-09-21T17:59:07.625Z,15.60
2018-09-21T18:01:36.223Z,15.57
2018-09-21T18:04:04.601Z,15.57
2018-09-21T18:06:33.217Z,15.50
2018-09-21T18:09:01.779Z,15.45
2018-09-21T18:11:36.620Z,15.45
2018-09-21T18:14:05.397Z,15.37
2018-09-21T18:16:33.908Z,15.40
2018-09-21T18:19:02.892Z,15.40
2018-09-21T18:21:31.479Z,15.39
2018-09-21T18:24:00.098Z,15.36
2018-09-21T18:28:50.464Z,15.30
2018-09-21T18:31:18.952Z,15.28
2018-09-21T18:33:48.107Z,15.27
2018-09-21T18:36:16.339Z,15.24
2018-09-21T18:38:45.077Z,15.21
2018-09-21T18:41:13.216Z,15.19
2018-09-21T18:43:41.697Z,15.23
2018-09-21T18:46:10.400Z,15.23
2018-09-21T18:48:39.176Z,15.23
2018-09-21T18:51:07.685Z,15.12
2018-09-21T18:53:35.835Z,14.82
2018-09-21T18:56:04.591Z,14.36
2018-09-21T18:58:33.788Z,13.94
2018-09-21T19:01:01.921Z,13.39
2018-09-21T19:03:30.672Z,12.90
2018-09-21T19:05:59.261Z,12.58
2018-09-21T19:08:27.893Z,12.26
2018-09-21T19:10:56.559Z,11.96
2018-09-21T19:13:25.876Z,11.77
2018-09-21T19:15:53.980Z,11.65
2018-09-21T19:18:23.081Z,11.47
2018-09-21T19:20:51.897Z,11.27
2018-09-21T19:23:22.046Z,11.14
2018-09-21T19:25:50.333Z,11.08
2018-09-21T19:28:18.901Z,11.04
2018-09-21T19:30:47.505Z,11.02
2018-09-21T19:33:15.991Z,10.98
2018-09-21T19:35:44.779Z,10.94
2018-09-21T19:38:13.512Z,10.98
2018-09-21T19:40:41.649Z,11.01
2018-09-21T19:43:09.835Z,11.02
2018-09-21T19:45:38.717Z,11.07
2018-09-21T19:48:07.404Z,11.16
2018-09-21T19:50:35.779Z,11.20
2018-09-21T19:53:10.738Z,11.29
2018-09-21T19:55:39.160Z,11.36
2018-09-21T19:58:08.437Z,11.39
2018-09-21T20:00:37.221Z,11.41
2018-09-21T20:03:06.032Z,11.37
2018-09-21T20:05:34.714Z,11.33
2018-09-21T20:08:03.173Z,11.27
2018-09-21T20:10:32.144Z,11.18
2018-09-21T20:13:00.581Z,11.13
2018-09-21T20:15:28.873Z,11.05
2018-09-21T20:17:57.344Z,11.06
2018-09-21T20:20:25.877Z,11.19
2018-09-21T20:22:54.025Z,11.23
2018-09-21T20:25:22.216Z,11.33
2018-09-21T20:27:50.847Z,11.39
2018-09-21T20:30:25.737Z,11.41
2018-09-21T20:32:59.674Z,11.37
2018-09-21T20:35:28.068Z,11.41
2018-09-21T20:37:56.689Z,11.41
2018-09-21T20:40:25.168Z,11.39
2018-09-21T20:42:53.620Z,11.38
2018-09-21T20:45:22.116Z,11.41
2018-09-21T20:47:50.961Z,11.44
2018-09-21T20:50:19.464Z,11.45
2018-09-21T20:52:48.100Z,11.45
2018-09-21T20:55:16.261Z,11.41
2018-09-21T20:57:44.732Z,11.49
2018-09-21T21:00:13.235Z,11.45
2018-09-21T21:02:42.021Z,11.43
2018-09-21T21:05:10.547Z,11.39
2018-09-21T21:07:39.448Z,11.40
2018-09-21T21:10:08.157Z,11.35
2018-09-21T21:12:41.110Z,11.35
2018-09-21T21:15:09.517Z,11.37
2018-09-21T21:17:38.363Z,11.37
2018-09-21T21:20:06.852Z,11.42
2018-09-21T21:22:35.189Z,11.45
2018-09-21T21:25:03.421Z,11.47
2018-09-21T21:27:31.809Z,11.43
2018-09-21T21:29:59.964Z,11.41
2018-09-21T21:32:28.420Z,11.42
2018-09-21T21:34:56.687Z,11.45
2018-09-21T21:37:25.093Z,11.49
2018-09-21T21:39:53.260Z,11.52
2018-09-21T21:42:22.017Z,11.54
2018-09-21T21:44:50.198Z,11.54
2018-09-21T21:47:18.662Z,11.55
2018-09-21T21:49:47.352Z,11.70
2018-09-21T21:52:16.328Z,11.78
2018-09-21T21:54:45.145Z,11.92
2018-09-21T21:57:13.646Z,11.96
2018-09-21T21:59:42.510Z,11.93
2018-09-21T22:02:13.093Z,11.88
2018-09-21T22:04:42.871Z,11.85
2018-09-21T22:07:12.156Z,11.85
2018-09-21T22:09:40.325Z,11.83
2018-09-21T22:12:14.592Z,11.83
2018-09-21T22:14:43.100Z,11.81
2018-09-21T22:17:11.453Z,11.75
2018-09-21T22:19:39.963Z,11.73
2018-09-21T22:22:08.493Z,11.71
2018-09-21T22:24:37.274Z,11.77
2018-09-21T22:27:05.761Z,11.85
2018-09-21T22:29:34.343Z,11.85
2018-09-21T22:32:02.993Z,11.75
2018-09-21T22:34:31.643Z,11.71
2018-09-21T22:37:00.193Z,11.83
2018-09-21T22:39:29.557Z,11.96
2018-09-21T22:41:58.338Z,11.95
2018-09-21T22:44:26.505Z,11.89
2018-09-21T22:46:54.993Z,11.86
2018-09-21T22:49:24.163Z,11.79
2018-09-21T22:51:52.673Z,11.72
2018-09-21T22:54:22.901Z,11.75
2018-09-21T22:56:51.269Z,11.78
2018-09-21T22:59:20.320Z,11.78
2018-09-21T23:01:49.005Z,11.74
2018-09-21T23:04:17.189Z,11.70
2018-09-21T23:06:45.717Z,11.65
2018-09-21T23:09:13.997Z,11.60
2018-09-21T23:11:43.149Z,11.60
2018-09-21T23:14:12.032Z,11.60
2018-09-21T23:16:40.905Z,11.57
2018-09-21T23:19:09.905Z,11.55
2018-09-21T23:21:38.125Z,11.55
2018-09-21T23:24:06.528Z,11.59
2018-09-21T23:26:35.667Z,11.61
2018-09-21T23:29:04.481Z,11.62
2018-09-21T23:31:33.176Z,11.61
2018-09-21T23:34:01.560Z,11.61
2018-09-21T23:36:41.879Z,11.61
2018-09-21T23:39:10.927Z,11.64
2018-09-21T23:41:40.320Z,11.65
2018-09-21T23:44:09.380Z,11.67
2018-09-21T23:46:37.953Z,11.66
2018-09-21T23:49:06.548Z,11.65
2018-09-21T23:51:37.408Z,11.70
2018-09-21T23:54:06.185Z,11.74
2018-09-21T23:56:35.121Z,11.80
2018-09-21T23:59:05.117Z,11.82
